Time;durP1;ratioP1;P1;durP2;ratioP2;P2;SDS_P1;SDS_P2;PMS_P1;PMS_P2;Temp;Humidity;BMP_temperature;BMP_pressure;BME280_temperature;BME280_humidity;BME280_pressure;Samples;Min_cycle;Max_cycle;Signal;HPM_P1;HPM_P2
2022/06/30 00:00:51;;;;;;;0.20;0.10;;;;;;;;;;4925873;29;20524;-56
2022/06/30 00:03:16;;;;;;;3.00;1.75;;;;;;;;;;4923679;29;20038;-56
2022/06/30 00:05:42;;;;;;;0.00;0.00;;;;;;;;;;4926850;29;20038;-54
2022/06/30 00:08:07;;;;;;;1.55;1.45;;;;;;;;;;4908928;29;20050;-51
2022/06/30 00:10:32;;;;;;;0.40;0.40;;;;;;;;;;4924029;29;20087;-56
2022/06/30 00:12:58;;;;;;;0.00;0.00;;;;;;;;;;4925257;29;20036;-57
2022/06/30 00:15:23;;;;;;;2.60;2.40;;;;;;;;;;4925144;29;20528;-57
2022/06/30 00:17:48;;;;;;;0.00;0.00;;;;;;;;;;4923924;29;20024;-54
2022/06/30 00:20:14;;;;;;;0.65;0.65;;;;;;;;;;4926110;29;20064;-56
2022/06/30 00:22:39;;;;;;;0.20;0.20;;;;;;;;;;4924047;29;20122;-55
2022/06/30 00:25:04;;;;;;;0.00;0.00;;;;;;;;;;4925890;29;20027;-56
2022/06/30 00:27:29;;;;;;;0.13;0.13;;;;;;;;;;4924998;29;20111;-56
2022/06/30 00:29:55;;;;;;;0.00;0.00;;;;;;;;;;4923733;29;20032;-55
2022/06/30 00:32:20;;;;;;;3.33;2.17;;;;;;;;;;4925139;29;20730;-55
2022/06/30 00:34:45;;;;;;;1.55;1.45;;;;;;;;;;4924200;29;20024;-55
2022/06/30 00:37:11;;;;;;;0.00;0.00;;;;;;;;;;4926380;29;20020;-55
2022/06/30 00:39:36;;;;;;;0.38;0.38;;;;;;;;;;4924393;29;20442;-55
2022/06/30 00:42:02;;;;;;;0.30;0.30;;;;;;;;;;4928287;29;20031;-56
2022/06/30 00:44:27;;;;;;;0.52;0.52;;;;;;;;;;4925777;29;20028;-57
2022/06/30 00:46:52;;;;;;;3.78;1.67;;;;;;;;;;4923541;29;20028;-57
2022/06/30 00:49:18;;;;;;;0.70;0.70;;;;;;;;;;4923628;29;20060;-57
2022/06/30 00:51:43;;;;;;;1.25;0.45;;;;;;;;;;4929924;29;20466;-57
2022/06/30 00:54:10;;;;;;;0.00;0.00;;;;;;;;;;4927794;29;20433;-57
2022/06/30 00:56:37;;;;;;;0.00;0.00;;;;;;;;;;4923182;29;20020;-57
2022/06/30 00:59:03;;;;;;;0.00;0.00;;;;;;;;;;4921760;29;20028;-57
2022/06/30 01:01:29;;;;;;;0.40;0.40;;;;;;;;;;4927897;29;20019;-58
2022/06/30 01:03:55;;;;;;;0.30;0.30;;;;;;;;;;4920919;29;20047;-58
2022/06/30 01:06:21;;;;;;;0.75;0.75;;;;;;;;;;4924534;29;20384;-57
2022/06/30 01:08:46;;;;;;;1.95;1.33;;;;;;;;;;4923236;29;20531;-57
2022/06/30 01:13:55;;;;;;;0.00;0.00;;;;;;;;;;4922619;29;20035;-57
2022/06/30 01:16:22;;;;;;;0.38;0.38;;;;;;;;;;4924225;29;20107;-58
2022/06/30 01:18:47;;;;;;;1.30;1.30;;;;;;;;;;4923091;29;20078;-57
2022/06/30 01:21:12;;;;;;;2.28;1.63;;;;;;;;;;4924140;29;20515;-57
2022/06/30 01:23:38;;;;;;;0.43;0.43;;;;;;;;;;4924049;29;20163;-56
2022/06/30 01:26:03;;;;;;;1.27;1.27;;;;;;;;;;4925199;29;20031;-55
2022/06/30 01:28:28;;;;;;;0.90;0.90;;;;;;;;;;4920322;29;20103;-56
2022/06/30 01:30:53;;;;;;;0.65;0.65;;;;;;;;;;4927402;29;20035;-55
2022/06/30 01:33:19;;;;;;;0.52;0.47;;;;;;;;;;4924526;29;20031;-57
2022/06/30 01:35:44;;;;;;;0.30;0.30;;;;;;;;;;4919947;29;20020;-54
2022/06/30 01:38:09;;;;;;;0.57;0.57;;;;;;;;;;4924741;29;20032;-56
2022/06/30 01:40:35;;;;;;;0.22;0.22;;;;;;;;;;4926594;29;20039;-54
2022/06/30 01:43:01;;;;;;;0.00;0.00;;;;;;;;;;4928171;29;20038;-56
2022/06/30 01:45:27;;;;;;;0.00;0.00;;;;;;;;;;4926561;29;20032;-55
2022/06/30 01:47:53;;;;;;;0.00;0.00;;;;;;;;;;4925472;29;20024;-54
2022/06/30 01:50:23;;;;;;;0.00;0.00;;;;;;;;;;4923940;29;20110;-54
2022/06/30 01:52:48;;;;;;;0.00;0.00;;;;;;;;;;4927363;29;20024;-55
2022/06/30 01:55:14;;;;;;;0.32;0.32;;;;;;;;;;4925846;29;20031;-54
2022/06/30 01:57:39;;;;;;;0.00;0.00;;;;;;;;;;4921837;29;20558;-54
2022/06/30 02:00:06;;;;;;;0.00;0.00;;;;;;;;;;4927724;29;20111;-56
2022/06/30 02:02:31;;;;;;;0.65;0.65;;;;;;;;;;4929360;29;20044;-56
2022/06/30 02:04:56;;;;;;;0.82;0.80;;;;;;;;;;4928835;29;20032;-54
2022/06/30 02:07:23;;;;;;;0.08;0.08;;;;;;;;;;4927607;29;20023;-55
2022/06/30 02:09:51;;;;;;;0.00;0.00;;;;;;;;;;4929479;29;20028;-56
2022/06/30 02:15:01;;;;;;;0.00;0.00;;;;;;;;;;4928273;29;20372;-55
2022/06/30 02:17:26;;;;;;;0.00;0.00;;;;;;;;;;4927032;29;20032;-55
2022/06/30 02:19:52;;;;;;;0.00;0.00;;;;;;;;;;4929336;29;20059;-54
2022/06/30 02:22:17;;;;;;;0.00;0.00;;;;;;;;;;4928490;29;20076;-56
2022/06/30 02:24:42;;;;;;;0.00;0.00;;;;;;;;;;4925945;29;20111;-54
2022/06/30 02:27:07;;;;;;;0.00;0.00;;;;;;;;;;4926322;29;20118;-56
2022/06/30 02:29:33;;;;;;;0.00;0.00;;;;;;;;;;4926074;29;20143;-56
2022/06/30 02:31:59;;;;;;;0.00;0.00;;;;;;;;;;4929203;29;20111;-56
2022/06/30 02:34:24;;;;;;;0.00;0.00;;;;;;;;;;4926420;29;20020;-58
2022/06/30 02:36:50;;;;;;;0.00;0.00;;;;;;;;;;4927843;29;20481;-57
2022/06/30 02:39:15;;;;;;;0.20;0.20;;;;;;;;;;4928567;29;20111;-58
2022/06/30 02:41:41;;;;;;;0.00;0.00;;;;;;;;;;4928157;29;20426;-58
2022/06/30 02:44:06;;;;;;;0.00;0.00;;;;;;;;;;4925435;29;20024;-57
2022/06/30 02:46:31;;;;;;;0.00;0.00;;;;;;;;;;4925497;29;20103;-57
2022/06/30 02:48:56;;;;;;;0.00;0.00;;;;;;;;;;4925276;29;20027;-57
2022/06/30 02:51:22;;;;;;;0.00;0.00;;;;;;;;;;4925743;29;20035;-57
2022/06/30 02:53:47;;;;;;;0.00;0.00;;;;;;;;;;4924903;29;20034;-56
2022/06/30 02:56:12;;;;;;;1.38;1.38;;;;;;;;;;4927261;29;20059;-57
2022/06/30 02:58:38;;;;;;;0.00;0.00;;;;;;;;;;4930544;29;20111;-57
2022/06/30 03:01:03;;;;;;;0.00;0.00;;;;;;;;;;4928665;29;20039;-57
2022/06/30 03:03:29;;;;;;;0.00;0.00;;;;;;;;;;4930429;29;20020;-56
2022/06/30 03:05:54;;;;;;;0.00;0.00;;;;;;;;;;4924435;29;20028;-57
2022/06/30 03:08:19;;;;;;;0.00;0.00;;;;;;;;;;4927183;29;20030;-57
2022/06/30 03:10:44;;;;;;;0.00;0.00;;;;;;;;;;4924534;29;20331;-57
2022/06/30 03:13:10;;;;;;;0.00;0.00;;;;;;;;;;4924420;29;20276;-58
2022/06/30 03:15:35;;;;;;;0.00;0.00;;;;;;;;;;4924953;29;20095;-58
2022/06/30 03:18:01;;;;;;;0.00;0.00;;;;;;;;;;4927034;29;20091;-58
2022/06/30 03:20:26;;;;;;;0.00;0.00;;;;;;;;;;4927478;29;20047;-58
2022/06/30 03:22:51;;;;;;;0.00;0.00;;;;;;;;;;4927713;29;20035;-55
2022/06/30 03:25:16;;;;;;;0.00;0.00;;;;;;;;;;4928083;29;20023;-58
2022/06/30 03:27:42;;;;;;;0.00;0.00;;;;;;;;;;4926184;29;20028;-57
2022/06/30 03:30:07;;;;;;;0.60;0.60;;;;;;;;;;4920858;29;20183;-56
2022/06/30 03:32:33;;;;;;;0.00;0.00;;;;;;;;;;4927539;29;20490;-56
2022/06/30 03:34:58;;;;;;;0.15;0.15;;;;;;;;;;4923995;29;20383;-54
2022/06/30 03:37:23;;;;;;;0.00;0.00;;;;;;;;;;4925386;29;20026;-56
2022/06/30 03:39:48;;;;;;;0.00;0.00;;;;;;;;;;4931074;29;20106;-55
2022/06/30 03:42:14;;;;;;;0.30;0.30;;;;;;;;;;4929086;29;20087;-55
2022/06/30 03:44:39;;;;;;;0.00;0.00;;;;;;;;;;4927411;29;20474;-52
2022/06/30 03:47:04;;;;;;;0.20;0.20;;;;;;;;;;4927311;29;20016;-55
2022/06/30 03:49:30;;;;;;;0.00;0.00;;;;;;;;;;4923508;29;20107;-56
2022/06/30 03:51:55;;;;;;;0.00;0.00;;;;;;;;;;4927814;29;20034;-57
2022/06/30 03:54:20;;;;;;;0.00;0.00;;;;;;;;;;4933042;29;20020;-54
2022/06/30 03:56:45;;;;;;;0.00;0.00;;;;;;;;;;4929455;29;20050;-56
2022/06/30 03:59:11;;;;;;;0.00;0.00;;;;;;;;;;4927595;29;20448;-56
2022/06/30 04:01:36;;;;;;;0.00;0.00;;;;;;;;;;4929640;29;20264;-55
2022/06/30 04:04:01;;;;;;;0.00;0.00;;;;;;;;;;4934734;29;20034;-56
2022/06/30 04:06:26;;;;;;;0.00;0.00;;;;;;;;;;4932093;29;20020;-56
2022/06/30 04:08:51;;;;;;;0.55;0.40;;;;;;;;;;4931876;29;21492;-56
2022/06/30 04:11:17;;;;;;;0.00;0.00;;;;;;;;;;4932371;29;20028;-57
2022/06/30 04:13:42;;;;;;;5.05;1.55;;;;;;;;;;4926001;29;20264;-56
2022/06/30 04:16:07;;;;;;;0.00;0.00;;;;;;;;;;4923477;29;20552;-56
2022/06/30 04:18:32;;;;;;;0.00;0.00;;;;;;;;;;4923919;29;20180;-57
2022/06/30 04:20:58;;;;;;;0.00;0.00;;;;;;;;;;4927996;29;20047;-57
2022/06/30 04:23:23;;;;;;;0.00;0.00;;;;;;;;;;4928107;29;20500;-56
2022/06/30 04:25:48;;;;;;;0.00;0.00;;;;;;;;;;4926326;29;20031;-53
2022/06/30 04:28:14;;;;;;;0.00;0.00;;;;;;;;;;4928789;29;20039;-56
2022/06/30 04:33:23;;;;;;;0.00;0.00;;;;;;;;;;4923300;29;20031;-56
2022/06/30 04:35:48;;;;;;;0.00;0.00;;;;;;;;;;4923917;29;20024;-55
2022/06/30 04:38:16;;;;;;;0.00;0.00;;;;;;;;;;4909103;29;20035;-55
2022/06/30 04:43:25;;;;;;;0.00;0.00;;;;;;;;;;4926691;29;20516;-56
2022/06/30 04:45:50;;;;;;;0.95;0.95;;;;;;;;;;4925149;29;20031;-56
2022/06/30 04:48:16;;;;;;;0.00;0.00;;;;;;;;;;4926686;29;20043;-58
2022/06/30 04:50:44;;;;;;;0.30;0.30;;;;;;;;;;4924173;29;20040;-54
2022/06/30 04:53:12;;;;;;;1.00;0.55;;;;;;;;;;4923786;29;20030;-54
2022/06/30 04:55:40;;;;;;;0.00;0.00;;;;;;;;;;4922255;29;20024;-57
2022/06/30 04:58:06;;;;;;;1.73;1.65;;;;;;;;;;4926223;29;20032;-55
2022/06/30 05:00:34;;;;;;;0.13;0.13;;;;;;;;;;4926075;29;20084;-53
2022/06/30 05:02:59;;;;;;;0.00;0.00;;;;;;;;;;4927504;29;20480;-57
2022/06/30 05:05:25;;;;;;;0.00;0.00;;;;;;;;;;4927731;29;20221;-57
2022/06/30 05:07:50;;;;;;;0.00;0.00;;;;;;;;;;4926493;29;20024;-57
2022/06/30 05:10:15;;;;;;;0.35;0.35;;;;;;;;;;4927352;29;20035;-58
2022/06/30 05:12:44;;;;;;;0.00;0.00;;;;;;;;;;4923468;29;20027;-57
2022/06/30 05:15:09;;;;;;;0.10;0.10;;;;;;;;;;4923751;29;20468;-57
2022/06/30 05:17:34;;;;;;;0.10;0.10;;;;;;;;;;4925772;29;20020;-55
2022/06/30 05:20:00;;;;;;;0.20;0.20;;;;;;;;;;4923821;29;20040;-57
2022/06/30 05:22:25;;;;;;;1.75;1.75;;;;;;;;;;4926776;29;20053;-57
2022/06/30 05:27:34;;;;;;;0.93;0.90;;;;;;;;;;4929762;29;20082;-55
2022/06/30 05:30:00;;;;;;;0.00;0.00;;;;;;;;;;4930609;29;20024;-56
2022/06/30 05:32:25;;;;;;;0.00;0.00;;;;;;;;;;4930722;29;20035;-56
2022/06/30 05:34:50;;;;;;;0.27;0.27;;;;;;;;;;4931980;29;20032;-55
2022/06/30 05:37:15;;;;;;;0.00;0.00;;;;;;;;;;4933678;29;20314;-56
2022/06/30 05:39:41;;;;;;;0.08;0.08;;;;;;;;;;4917150;29;20371;-56
2022/06/30 05:42:06;;;;;;;0.00;0.00;;;;;;;;;;4933371;29;20411;-56
2022/06/30 05:44:32;;;;;;;0.00;0.00;;;;;;;;;;4929546;29;20031;-56
2022/06/30 05:46:57;;;;;;;0.88;0.88;;;;;;;;;;4933786;29;20044;-56
2022/06/30 05:49:29;;;;;;;0.00;0.00;;;;;;;;;;4934152;29;20038;-53
2022/06/30 05:51:54;;;;;;;2.08;1.08;;;;;;;;;;4935330;29;20264;-55
2022/06/30 05:54:20;;;;;;;1.02;0.98;;;;;;;;;;4929002;29;20131;-56
2022/06/30 05:56:45;;;;;;;0.30;0.30;;;;;;;;;;4932483;29;20537;-55
2022/06/30 05:59:10;;;;;;;0.00;0.00;;;;;;;;;;4926812;29;20508;-55
2022/06/30 06:01:36;;;;;;;0.13;0.13;;;;;;;;;;4923759;29;20051;-57
2022/06/30 06:04:01;;;;;;;0.00;0.00;;;;;;;;;;4930555;29;20083;-57
2022/06/30 06:06:26;;;;;;;0.00;0.00;;;;;;;;;;4930007;29;20063;-56
2022/06/30 06:08:51;;;;;;;0.00;0.00;;;;;;;;;;4930669;29;20035;-58
2022/06/30 06:11:17;;;;;;;0.00;0.00;;;;;;;;;;4930037;29;20039;-55
2022/06/30 06:13:42;;;;;;;0.00;0.00;;;;;;;;;;4929221;29;20015;-55
2022/06/30 06:16:07;;;;;;;0.13;0.13;;;;;;;;;;4930571;29;20127;-55
2022/06/30 06:18:32;;;;;;;0.10;0.10;;;;;;;;;;4916190;29;20047;-55
2022/06/30 06:20:58;;;;;;;1.27;1.27;;;;;;;;;;4932335;29;20397;-56
2022/06/30 06:23:23;;;;;;;0.00;0.00;;;;;;;;;;4931808;29;20064;-56
2022/06/30 06:25:48;;;;;;;0.30;0.30;;;;;;;;;;4929139;29;20260;-55
2022/06/30 06:30:57;;;;;;;0.00;0.00;;;;;;;;;;4927120;29;20055;-54
2022/06/30 06:33:22;;;;;;;0.00;0.00;;;;;;;;;;4930224;29;20112;-55
2022/06/30 06:35:47;;;;;;;0.30;0.30;;;;;;;;;;4928560;29;20058;-57
2022/06/30 06:38:13;;;;;;;0.63;0.63;;;;;;;;;;4928315;29;20474;-56
2022/06/30 06:40:38;;;;;;;0.00;0.00;;;;;;;;;;4929584;29;20030;-57
2022/06/30 06:43:03;;;;;;;0.10;0.10;;;;;;;;;;4929895;29;20072;-54
2022/06/30 06:45:28;;;;;;;0.00;0.00;;;;;;;;;;4929986;29;20683;-57
2022/06/30 06:47:54;;;;;;;0.00;0.00;;;;;;;;;;4920353;29;20032;-58
2022/06/30 06:50:19;;;;;;;1.55;1.45;;;;;;;;;;4930451;29;20088;-57
2022/06/30 06:52:44;;;;;;;0.43;0.43;;;;;;;;;;4929734;29;20022;-57
2022/06/30 06:55:09;;;;;;;0.00;0.00;;;;;;;;;;4929518;29;20338;-54
2022/06/30 06:57:36;;;;;;;1.30;0.32;;;;;;;;;;4925641;29;20070;-56
2022/06/30 07:00:05;;;;;;;0.45;0.45;;;;;;;;;;4929165;29;20038;-58
2022/06/30 07:02:30;;;;;;;0.00;0.00;;;;;;;;;;4926981;29;20115;-57
2022/06/30 07:04:55;;;;;;;0.38;0.38;;;;;;;;;;4930217;29;20477;-58
2022/06/30 07:07:20;;;;;;;0.10;0.10;;;;;;;;;;4922982;29;20024;-56
2022/06/30 07:09:46;;;;;;;0.73;0.28;;;;;;;;;;4929063;29;20288;-57
2022/06/30 07:12:11;;;;;;;0.00;0.00;;;;;;;;;;4930978;29;20051;-57
2022/06/30 07:14:36;;;;;;;0.00;0.00;;;;;;;;;;4930482;29;20263;-59
2022/06/30 07:17:01;;;;;;;0.00;0.00;;;;;;;;;;4931487;29;20113;-60
2022/06/30 07:19:27;;;;;;;1.40;1.30;;;;;;;;;;4931951;29;20323;-58
2022/06/30 07:21:52;;;;;;;0.00;0.00;;;;;;;;;;4929042;29;20031;-60
2022/06/30 07:24:17;;;;;;;1.33;1.25;;;;;;;;;;4925106;29;20260;-59
2022/06/30 07:26:42;;;;;;;0.83;0.83;;;;;;;;;;4930248;29;20466;-61
2022/06/30 07:29:08;;;;;;;1.85;1.85;;;;;;;;;;4932743;29;20771;-60
2022/06/30 07:31:33;;;;;;;0.00;0.00;;;;;;;;;;4931079;29;20028;-59
2022/06/30 07:33:58;;;;;;;0.63;0.63;;;;;;;;;;4931108;29;20031;-60
2022/06/30 07:36:23;;;;;;;0.53;0.53;;;;;;;;;;4914442;29;20267;-60
2022/06/30 07:38:49;;;;;;;1.65;0.20;;;;;;;;;;4929769;29;20268;-60
2022/06/30 07:41:15;;;;;;;0.00;0.00;;;;;;;;;;4931773;29;20020;-60
2022/06/30 07:43:40;;;;;;;0.00;0.00;;;;;;;;;;4931849;29;20027;-60
2022/06/30 07:46:06;;;;;;;0.00;0.00;;;;;;;;;;4914416;29;20031;-61
2022/06/30 07:48:32;;;;;;;0.00;0.00;;;;;;;;;;4930198;29;20734;-60
2022/06/30 07:50:57;;;;;;;0.67;0.67;;;;;;;;;;4930226;29;20015;-60
2022/06/30 07:53:22;;;;;;;0.27;0.27;;;;;;;;;;4930616;29;20363;-60
2022/06/30 07:55:47;;;;;;;0.00;0.00;;;;;;;;;;4925670;29;20279;-60
2022/06/30 07:58:13;;;;;;;0.00;0.00;;;;;;;;;;4929182;29;20274;-60
2022/06/30 08:00:38;;;;;;;0.00;0.00;;;;;;;;;;4925431;29;20027;-60
2022/06/30 08:03:03;;;;;;;0.00;0.00;;;;;;;;;;4928186;29;20031;-60
2022/06/30 08:05:28;;;;;;;0.00;0.00;;;;;;;;;;4928167;29;20544;-60
2022/06/30 08:07:54;;;;;;;0.00;0.00;;;;;;;;;;4926827;29;20267;-60
2022/06/30 08:10:19;;;;;;;0.10;0.10;;;;;;;;;;4906513;29;20378;-59
2022/06/30 08:12:44;;;;;;;0.22;0.22;;;;;;;;;;4927804;29;20110;-62
2022/06/30 08:15:10;;;;;;;0.00;0.00;;;;;;;;;;4930932;29;20437;-60
2022/06/30 08:17:35;;;;;;;0.30;0.30;;;;;;;;;;4912884;29;20044;-61
2022/06/30 08:20:00;;;;;;;1.00;1.00;;;;;;;;;;4929939;29;20166;-61
2022/06/30 08:22:26;;;;;;;0.00;0.00;;;;;;;;;;4926937;29;20039;-61
2022/06/30 08:24:51;;;;;;;1.85;1.75;;;;;;;;;;4923152;29;20032;-61
2022/06/30 08:27:17;;;;;;;0.08;0.08;;;;;;;;;;4927134;29;20027;-61
2022/06/30 08:29:42;;;;;;;0.30;0.30;;;;;;;;;;4926523;29;20079;-59
2022/06/30 08:32:07;;;;;;;0.00;0.00;;;;;;;;;;4928219;29;20048;-60
2022/06/30 08:34:32;;;;;;;0.28;0.15;;;;;;;;;;4927463;29;20043;-60
2022/06/30 08:36:58;;;;;;;5.37;2.67;;;;;;;;;;4923645;29;20020;-58
2022/06/30 08:42:08;;;;;;;0.10;0.10;;;;;;;;;;4924475;29;20030;-59
2022/06/30 08:44:34;;;;;;;2.65;0.70;;;;;;;;;;4925783;29;20042;-60
2022/06/30 08:46:59;;;;;;;0.20;0.20;;;;;;;;;;4923427;29;20450;-60
2022/06/30 08:49:26;;;;;;;0.45;0.45;;;;;;;;;;4924310;29;20022;-61
2022/06/30 08:51:52;;;;;;;0.85;0.55;;;;;;;;;;4922047;29;20040;-59
2022/06/30 08:54:19;;;;;;;0.00;0.00;;;;;;;;;;4923429;29;20055;-60
2022/06/30 08:56:45;;;;;;;0.08;0.08;;;;;;;;;;4924129;29;20012;-60
2022/06/30 08:59:11;;;;;;;0.28;0.28;;;;;;;;;;4924857;29;20772;-60
2022/06/30 09:01:36;;;;;;;0.10;0.08;;;;;;;;;;4926578;29;20032;-59
2022/06/30 09:04:01;;;;;;;0.20;0.20;;;;;;;;;;4923414;29;20020;-61
2022/06/30 09:06:26;;;;;;;0.00;0.00;;;;;;;;;;4926672;29;20481;-59
2022/06/30 09:08:52;;;;;;;0.83;0.83;;;;;;;;;;4924309;29;20279;-59
2022/06/30 09:11:17;;;;;;;0.00;0.00;;;;;;;;;;4926724;29;20291;-59
2022/06/30 09:13:43;;;;;;;0.00;0.00;;;;;;;;;;4931421;29;20027;-58
2022/06/30 09:16:09;;;;;;;0.00;0.00;;;;;;;;;;4926921;29;20027;-59
2022/06/30 09:18:34;;;;;;;0.00;0.00;;;;;;;;;;4932574;29;20131;-58
2022/06/30 09:21:07;;;;;;;0.00;0.00;;;;;;;;;;4931854;29;20036;-59
2022/06/30 09:23:35;;;;;;;0.00;0.00;;;;;;;;;;4924950;29;20039;-59
2022/06/30 09:26:01;;;;;;;0.00;0.00;;;;;;;;;;4931149;29;20043;-59
2022/06/30 09:28:41;;;;;;;1.42;1.38;;;;;;;;;;4930616;29;20024;-60
2022/06/30 09:31:06;;;;;;;0.68;0.68;;;;;;;;;;4931657;29;20378;-58
2022/06/30 09:33:35;;;;;;;0.00;0.00;;;;;;;;;;4926876;29;20028;-59
2022/06/30 09:36:20;;;;;;;0.20;0.20;;;;;;;;;;4920091;29;20024;-59
2022/06/30 09:39:13;;;;;;;0.43;0.43;;;;;;;;;;4922980;29;20016;-59
2022/06/30 09:41:39;;;;;;;0.30;0.30;;;;;;;;;;4925655;29;20048;-59
2022/06/30 09:44:17;;;;;;;1.65;1.55;;;;;;;;;;4924602;28;20405;-58
2022/06/30 09:47:01;;;;;;;0.33;0.33;;;;;;;;;;4926431;29;20030;-59
2022/06/30 09:49:28;;;;;;;0.05;0.05;;;;;;;;;;4929599;29;20024;-59
2022/06/30 09:51:53;;;;;;;0.00;0.00;;;;;;;;;;4920221;29;20032;-59
2022/06/30 09:54:18;;;;;;;2.83;2.73;;;;;;;;;;4926696;29;20366;-59
2022/06/30 09:56:58;;;;;;;0.00;0.00;;;;;;;;;;4912063;29;20787;-58
2022/06/30 09:59:24;;;;;;;2.17;2.08;;;;;;;;;;4935022;29;20369;-60
2022/06/30 10:01:50;;;;;;;1.65;1.55;;;;;;;;;;4937392;29;20028;-59
2022/06/30 10:04:17;;;;;;;0.60;0.60;;;;;;;;;;4933536;29;20027;-58
2022/06/30 10:06:44;;;;;;;0.20;0.20;;;;;;;;;;4934030;29;20102;-59
2022/06/30 10:09:09;;;;;;;1.35;1.30;;;;;;;;;;4928538;29;20031;-59
2022/06/30 10:11:35;;;;;;;0.10;0.10;;;;;;;;;;4932527;29;20031;-58
2022/06/30 10:14:00;;;;;;;0.00;0.00;;;;;;;;;;4931733;29;20026;-58
2022/06/30 10:16:25;;;;;;;4.53;1.85;;;;;;;;;;4936278;29;20421;-59
2022/06/30 10:18:52;;;;;;;0.00;0.00;;;;;;;;;;4933644;29;20071;-60
2022/06/30 10:21:20;;;;;;;0.25;0.25;;;;;;;;;;4925224;29;20059;-60
2022/06/30 10:23:45;;;;;;;0.00;0.00;;;;;;;;;;4936964;29;20069;-57
2022/06/30 10:27:12;;;;;;;1.75;1.65;;;;;;;;;;4943012;29;20533;-59
2022/06/30 10:28:56;;;;;;;0.00;0.00;;;;;;;;;;4933649;29;20032;-59
2022/06/30 10:31:24;;;;;;;2.08;1.33;;;;;;;;;;4931713;29;20046;-59
2022/06/30 10:33:55;;;;;;;2.28;1.75;;;;;;;;;;4935575;29;20078;-59
2022/06/30 10:36:29;;;;;;;0.45;0.45;;;;;;;;;;4938983;29;20070;-57
2022/06/30 10:39:00;;;;;;;0.30;0.30;;;;;;;;;;4923498;29;20031;-59
2022/06/30 10:41:26;;;;;;;0.05;0.05;;;;;;;;;;4932081;29;20500;-59
2022/06/30 10:44:03;;;;;;;0.00;0.00;;;;;;;;;;4930852;29;20020;-59
2022/06/30 10:46:28;;;;;;;0.20;0.20;;;;;;;;;;4929275;29;20358;-60
2022/06/30 10:48:56;;;;;;;0.20;0.20;;;;;;;;;;4931549;29;20023;-59
2022/06/30 10:51:23;;;;;;;0.15;0.10;;;;;;;;;;4929763;29;20465;-59
2022/06/30 10:53:49;;;;;;;0.20;0.20;;;;;;;;;;4933315;29;20027;-58
2022/06/30 10:56:15;;;;;;;0.00;0.00;;;;;;;;;;4928011;29;20019;-59
2022/06/30 10:59:03;;;;;;;0.75;0.75;;;;;;;;;;4929021;29;20039;-57
2022/06/30 11:01:28;;;;;;;0.28;0.28;;;;;;;;;;4934563;29;20485;-58
2022/06/30 11:03:56;;;;;;;0.00;0.00;;;;;;;;;;4930588;29;20031;-58
2022/06/30 11:06:26;;;;;;;0.00;0.00;;;;;;;;;;4930168;29;20760;-58
2022/06/30 11:08:57;;;;;;;0.00;0.00;;;;;;;;;;4934351;29;20036;-59
2022/06/30 11:11:23;;;;;;;1.33;1.33;;;;;;;;;;4932984;29;20027;-59
2022/06/30 11:14:00;;;;;;;0.00;0.00;;;;;;;;;;4934631;29;20032;-59
2022/06/30 11:16:25;;;;;;;0.00;0.00;;;;;;;;;;4928629;29;20485;-59
2022/06/30 11:18:50;;;;;;;0.00;0.00;;;;;;;;;;4929134;29;20036;-59
2022/06/30 11:21:16;;;;;;;0.00;0.00;;;;;;;;;;4940282;29;20032;-59
2022/06/30 11:23:41;;;;;;;1.52;1.52;;;;;;;;;;4934696;29;20027;-59
2022/06/30 11:28:51;;;;;;;0.10;0.03;;;;;;;;;;4924364;29;20344;-60
2022/06/30 11:31:26;;;;;;;0.00;0.00;;;;;;;;;;4923589;29;20460;-60
2022/06/30 11:33:56;;;;;;;0.15;0.15;;;;;;;;;;4925710;29;20426;-60
2022/06/30 11:36:21;;;;;;;0.00;0.00;;;;;;;;;;4925841;29;20028;-60
2022/06/30 11:38:54;;;;;;;0.20;0.20;;;;;;;;;;4925808;29;20020;-58
2022/06/30 11:44:07;;;;;;;0.83;0.83;;;;;;;;;;4925930;29;20393;-60
2022/06/30 11:46:45;;;;;;;0.00;0.00;;;;;;;;;;4939180;29;20028;-59
2022/06/30 11:49:11;;;;;;;0.00;0.00;;;;;;;;;;4930003;29;20033;-61
2022/06/30 11:51:36;;;;;;;0.10;0.10;;;;;;;;;;4935955;29;20396;-61
2022/06/30 11:54:01;;;;;;;0.05;0.05;;;;;;;;;;4932954;29;20026;-60
2022/06/30 11:56:42;;;;;;;0.43;0.43;;;;;;;;;;4936183;29;20027;-61
2022/06/30 11:59:07;;;;;;;0.68;0.68;;;;;;;;;;4934655;29;20365;-60
2022/06/30 12:01:32;;;;;;;0.00;0.00;;;;;;;;;;4931746;29;20039;-61
2022/06/30 12:04:10;;;;;;;0.00;0.00;;;;;;;;;;4935442;29;20036;-61
2022/06/30 12:06:36;;;;;;;0.23;0.23;;;;;;;;;;4937841;29;20281;-60
2022/06/30 12:09:01;;;;;;;0.00;0.00;;;;;;;;;;4922127;29;20272;-61
2022/06/30 12:11:30;;;;;;;0.70;0.70;;;;;;;;;;4932703;29;20114;-60
2022/06/30 12:13:55;;;;;;;1.75;0.68;;;;;;;;;;4935792;29;20019;-61
2022/06/30 12:16:20;;;;;;;0.27;0.27;;;;;;;;;;4939567;29;20055;-60
2022/06/30 12:18:45;;;;;;;0.00;0.00;;;;;;;;;;4932010;29;20283;-60
2022/06/30 12:21:11;;;;;;;0.38;0.38;;;;;;;;;;4933697;29;20278;-60
2022/06/30 12:23:37;;;;;;;0.00;0.00;;;;;;;;;;4932948;29;20059;-60
2022/06/30 12:26:04;;;;;;;0.00;0.00;;;;;;;;;;4933558;29;20437;-62
2022/06/30 12:28:42;;;;;;;0.40;0.30;;;;;;;;;;4932654;29;20082;-60
2022/06/30 12:31:07;;;;;;;1.02;1.02;;;;;;;;;;4935435;29;20043;-61
2022/06/30 12:33:37;;;;;;;0.30;0.30;;;;;;;;;;4913685;29;20482;-60
2022/06/30 12:36:02;;;;;;;0.00;0.00;;;;;;;;;;4934505;29;20259;-60
2022/06/30 12:38:27;;;;;;;0.15;0.15;;;;;;;;;;4939514;29;20207;-61
2022/06/30 12:40:54;;;;;;;0.68;0.68;;;;;;;;;;4933282;29;20031;-59
2022/06/30 12:43:19;;;;;;;0.00;0.00;;;;;;;;;;4937983;29;20054;-61
2022/06/30 12:45:48;;;;;;;0.00;0.00;;;;;;;;;;4934409;29;20027;-60
2022/06/30 12:48:34;;;;;;;0.00;0.00;;;;;;;;;;4929471;29;22062;-60
2022/06/30 12:50:59;;;;;;;0.00;0.00;;;;;;;;;;4929075;29;20424;-62
2022/06/30 12:53:25;;;;;;;0.10;0.10;;;;;;;;;;4931101;29;20103;-61
2022/06/30 12:56:00;;;;;;;0.00;0.00;;;;;;;;;;4923931;29;20313;-62
2022/06/30 12:58:25;;;;;;;0.00;0.00;;;;;;;;;;4925855;29;20063;-62
2022/06/30 13:00:54;;;;;;;0.10;0.10;;;;;;;;;;4921841;29;20158;-62
2022/06/30 13:03:20;;;;;;;5.18;4.30;;;;;;;;;;4926568;29;20371;-63
2022/06/30 13:05:45;;;;;;;0.10;0.10;;;;;;;;;;4928291;29;20063;-63
2022/06/30 13:08:10;;;;;;;0.00;0.00;;;;;;;;;;4927067;29;20065;-62
2022/06/30 13:13:19;;;;;;;0.00;0.00;;;;;;;;;;4928154;29;20259;-62
2022/06/30 13:15:44;;;;;;;0.00;0.00;;;;;;;;;;4926584;29;20464;-62
2022/06/30 13:18:10;;;;;;;0.00;0.00;;;;;;;;;;4924533;29;20031;-62
2022/06/30 13:20:35;;;;;;;0.63;0.63;;;;;;;;;;4923329;29;20276;-61
2022/06/30 13:23:00;;;;;;;0.73;0.73;;;;;;;;;;4921892;29;20043;-61
2022/06/30 13:25:25;;;;;;;0.00;0.00;;;;;;;;;;4905651;29;20694;-60
2022/06/30 13:27:51;;;;;;;0.00;0.00;;;;;;;;;;4923956;29;20613;-61
2022/06/30 13:30:16;;;;;;;0.00;0.00;;;;;;;;;;4921249;29;20783;-61
2022/06/30 13:32:41;;;;;;;0.60;0.60;;;;;;;;;;4920176;29;20028;-61
2022/06/30 13:35:06;;;;;;;0.27;0.17;;;;;;;;;;4923063;29;20694;-61
2022/06/30 13:37:31;;;;;;;1.15;1.15;;;;;;;;;;4926696;29;20264;-60
2022/06/30 13:39:57;;;;;;;0.00;0.00;;;;;;;;;;4924158;29;20019;-61
2022/06/30 13:42:22;;;;;;;0.00;0.00;;;;;;;;;;4916493;29;20029;-61
2022/06/30 13:44:47;;;;;;;0.00;0.00;;;;;;;;;;4919180;29;20019;-61
2022/06/30 13:47:12;;;;;;;0.30;0.27;;;;;;;;;;4924973;29;20034;-61
2022/06/30 13:49:40;;;;;;;0.10;0.10;;;;;;;;;;4927690;29;20582;-61
2022/06/30 13:52:06;;;;;;;0.52;0.52;;;;;;;;;;4923107;29;20021;-61
2022/06/30 13:54:31;;;;;;;0.13;0.13;;;;;;;;;;4921518;29;20394;-61
2022/06/30 13:56:56;;;;;;;0.00;0.00;;;;;;;;;;4926131;29;20058;-61
2022/06/30 13:59:21;;;;;;;0.00;0.00;;;;;;;;;;4927565;29;20644;-61
2022/06/30 14:01:47;;;;;;;0.10;0.10;;;;;;;;;;4926214;29;20032;-60
2022/06/30 14:04:13;;;;;;;0.30;0.30;;;;;;;;;;4925770;29;20084;-61
2022/06/30 14:06:38;;;;;;;1.33;0.77;;;;;;;;;;4923051;29;20036;-60
2022/06/30 14:09:03;;;;;;;0.00;0.00;;;;;;;;;;4925999;29;20384;-60
2022/06/30 14:11:28;;;;;;;0.05;0.05;;;;;;;;;;4928820;29;20036;-63
2022/06/30 14:13:54;;;;;;;0.15;0.08;;;;;;;;;;4923215;29;20025;-60
2022/06/30 14:16:19;;;;;;;0.00;0.00;;;;;;;;;;4931068;29;20345;-60
2022/06/30 14:18:44;;;;;;;0.20;0.20;;;;;;;;;;4926220;29;20377;-61
2022/06/30 14:21:10;;;;;;;1.02;0.52;;;;;;;;;;4922565;29;20342;-61
2022/06/30 14:23:35;;;;;;;0.00;0.00;;;;;;;;;;4926039;29;20098;-61
2022/06/30 14:26:00;;;;;;;0.00;0.00;;;;;;;;;;4925112;29;20032;-61
2022/06/30 14:28:26;;;;;;;0.95;0.52;;;;;;;;;;4924945;29;20150;-61
2022/06/30 14:30:51;;;;;;;0.00;0.00;;;;;;;;;;4927939;29;20032;-60
2022/06/30 14:33:16;;;;;;;0.00;0.00;;;;;;;;;;4925464;29;20438;-61
2022/06/30 14:35:41;;;;;;;0.20;0.20;;;;;;;;;;4933229;29;20028;-61
2022/06/30 14:38:07;;;;;;;0.30;0.30;;;;;;;;;;4929974;29;20020;-61
2022/06/30 14:40:33;;;;;;;0.00;0.00;;;;;;;;;;4926923;29;20272;-61
2022/06/30 14:42:59;;;;;;;0.00;0.00;;;;;;;;;;4926244;29;20274;-61
2022/06/30 14:45:25;;;;;;;3.55;2.20;;;;;;;;;;4930601;29;20020;-61
2022/06/30 14:47:52;;;;;;;0.00;0.00;;;;;;;;;;4925753;29;20098;-60
2022/06/30 14:50:17;;;;;;;0.30;0.30;;;;;;;;;;4924059;29;20042;-61
2022/06/30 14:52:43;;;;;;;0.00;0.00;;;;;;;;;;4924282;29;20020;-61
2022/06/30 14:55:09;;;;;;;0.00;0.00;;;;;;;;;;4922265;29;20028;-60
2022/06/30 14:57:38;;;;;;;0.00;0.00;;;;;;;;;;4930265;29;20469;-61
2022/06/30 15:00:04;;;;;;;0.13;0.13;;;;;;;;;;4924276;29;20074;-63
2022/06/30 15:02:29;;;;;;;0.00;0.00;;;;;;;;;;4926646;29;20059;-60
2022/06/30 15:04:55;;;;;;;0.00;0.00;;;;;;;;;;4928356;29;20051;-62